Time;durP1;ratioP1;P1;durP2;ratioP2;P2;SDS_P1;SDS_P2;PMS_P1;PMS_P2;Temp;Humidity;BMP_temperature;BMP_pressure;BME280_temperature;BME280_humidity;BME280_pressure;Samples;Min_cycle;Max_cycle;Signal;HPM_P1;HPM_P2
2022/03/18 00:00:18;;;;;;;14.90;12.73;;;9.70;99.90;;;;;;5029493;28;20195;-56
2022/03/18 00:02:45;;;;;;;15.60;13.40;;;9.70;90.60;;;;;;5028942;28;20200;-55
2022/03/18 00:05:11;;;;;;;14.40;12.87;;;;;;;;;;5029046;28;20688;-51
2022/03/18 00:07:38;;;;;;;14.33;12.83;;;9.60;90.20;;;;;;5028713;28;20267;-57
2022/03/18 00:10:04;;;;;;;14.80;12.40;;;9.70;95.50;;;;;;5029246;28;20677;-54
2022/03/18 00:12:30;;;;;;;13.90;11.43;;;9.50;99.90;;;;;;5030054;28;20176;-54
2022/03/18 00:14:56;;;;;;;15.20;12.03;;;9.60;98.90;;;;;;5032194;28;20179;-54
2022/03/18 00:17:22;;;;;;;13.47;12.07;;;;;;;;;;5032131;28;20655;-57
2022/03/18 00:19:47;;;;;;;12.83;11.53;;;9.30;99.90;;;;;;5032057;28;20198;-55
2022/03/18 00:22:13;;;;;;;14.13;12.63;;;;;;;;;;5031881;28;20183;-54
2022/03/18 00:24:39;;;;;;;14.17;12.67;;;9.50;99.90;;;;;;5031919;28;20541;-57
2022/03/18 00:27:05;;;;;;;14.60;12.30;;;9.40;98.00;;;;;;5031832;28;20203;-54
2022/03/18 00:29:32;;;;;;;13.97;11.83;;;9.30;90.50;;;;;;5032172;28;20179;-56
2022/03/18 00:31:58;;;;;;;14.60;12.53;;;9.30;99.90;;;;;;5031879;28;20168;-56
2022/03/18 00:34:23;;;;;;;14.43;12.93;;;9.70;99.90;;;;;;5031557;28;20206;-56
2022/03/18 00:36:49;;;;;;;15.67;13.97;;;;;;;;;;5031841;28;20179;-56
2022/03/18 00:39:15;;;;;;;14.83;13.20;;;9.20;99.90;;;;;;5031893;28;20820;-52
2022/03/18 00:41:41;;;;;;;15.00;12.77;;;9.20;99.90;;;;;;5031979;28;20174;-52
2022/03/18 00:44:07;;;;;;;14.07;12.53;;;9.10;99.90;;;;;;5031339;28;20199;-57
2022/03/18 00:46:33;;;;;;;15.60;12.87;;;8.90;99.90;;;;;;5031831;28;20186;-57
2022/03/18 00:54:27;;;;;;;14.30;12.20;;;8.80;99.90;;;;;;5031306;28;20559;-54
2022/03/18 00:56:53;;;;;;;17.20;12.73;;;9.00;99.90;;;;;;5031711;28;20203;-56
2022/03/18 00:59:18;;;;;;;14.10;12.60;;;8.90;99.90;;;;;;5031767;28;20575;-51
2022/03/18 01:01:44;;;;;;;16.80;15.00;;;8.60;99.90;;;;;;5031492;28;20256;-50
2022/03/18 01:04:09;;;;;;;17.90;14.70;;;8.70;99.90;;;;;;5031135;28;20707;-50
2022/03/18 01:06:35;;;;;;;17.33;15.23;;;;;;;;;;5031633;28;20259;-51
2022/03/18 01:09:05;;;;;;;17.37;15.00;;;8.90;91.20;;;;;;5031590;28;20175;-49
2022/03/18 01:11:32;;;;;;;20.60;16.33;;;8.70;99.90;;;;;;5031573;28;20172;-53
2022/03/18 01:13:58;;;;;;;20.23;16.73;;;;;;;;;;5031083;28;20231;-51
2022/03/18 01:16:24;;;;;;;18.60;15.30;;;;;;;;;;5031453;28;20544;-51
2022/03/18 01:18:49;;;;;;;18.63;16.30;;;8.80;99.90;;;;;;5031521;28;20187;-49
2022/03/18 01:21:15;;;;;;;17.63;15.60;;;8.60;99.90;;;;;;5031494;28;20234;-50
2022/03/18 01:23:40;;;;;;;15.33;13.73;;;8.80;99.90;;;;;;5031172;28;20195;-52
2022/03/18 01:26:06;;;;;;;17.57;13.73;;;;;;;;;;5031301;28;20180;-52
2022/03/18 01:28:32;;;;;;;15.00;13.40;;;;;;;;;;5031279;28;20203;-50
2022/03/18 01:30:58;;;;;;;14.83;12.50;;;8.60;99.90;;;;;;5031097;28;20179;-51
2022/03/18 01:33:24;;;;;;;14.80;13.20;;;8.60;99.90;;;;;;5031190;28;20200;-51
2022/03/18 01:35:50;;;;;;;14.97;13.03;;;8.70;99.90;;;;;;5031303;28;20226;-51
2022/03/18 01:38:16;;;;;;;16.77;12.53;;;8.60;99.90;;;;;;5034566;28;20180;-49
2022/03/18 01:40:41;;;;;;;14.70;12.77;;;8.40;98.40;;;;;;5034933;28;20184;-51
2022/03/18 01:43:11;;;;;;;15.30;13.17;;;8.50;99.90;;;;;;5034729;28;20200;-54
2022/03/18 01:45:38;;;;;;;15.87;12.90;;;8.50;99.90;;;;;;5017113;28;20184;-51
2022/03/18 01:48:05;;;;;;;16.93;13.57;;;8.30;92.30;;;;;;5034857;28;20227;-54
2022/03/18 01:50:31;;;;;;;16.40;12.90;;;8.20;99.90;;;;;;5034767;28;20262;-53
2022/03/18 01:52:57;;;;;;;17.10;14.57;;;8.60;99.90;;;;;;5034279;28;20631;-50
2022/03/18 01:55:24;;;;;;;15.70;14.10;;;8.40;99.90;;;;;;5034547;28;20191;-53
2022/03/18 01:57:50;;;;;;;16.53;14.60;;;8.30;99.90;;;;;;5016913;28;20184;-51
2022/03/18 02:00:18;;;;;;;15.43;13.37;;;;;;;;;;5034511;28;20199;-55
2022/03/18 02:02:44;;;;;;;18.07;14.57;;;8.30;99.90;;;;;;5034257;28;20198;-52
2022/03/18 02:05:10;;;;;;;19.47;14.23;;;8.20;99.90;;;;;;5034633;28;20184;-52
2022/03/18 02:07:37;;;;;;;18.43;14.73;;;8.40;99.90;;;;;;5034453;28;20221;-51
2022/03/18 02:10:03;;;;;;;17.83;15.00;;;8.20;99.90;;;;;;5034473;28;20186;-55
2022/03/18 02:12:29;;;;;;;16.43;14.23;;;;;;;;;;5034091;28;20271;-55
2022/03/18 02:14:55;;;;;;;17.00;14.40;;;8.20;99.90;;;;;;5034222;28;20207;-50
2022/03/18 02:17:20;;;;;;;17.57;14.50;;;8.10;99.90;;;;;;5034382;28;20179;-55
2022/03/18 02:19:47;;;;;;;16.73;14.97;;;7.90;99.90;;;;;;5034385;28;20183;-51
2022/03/18 02:22:18;;;;;;;18.67;15.23;;;7.90;99.90;;;;;;5034193;28;20653;-52
2022/03/18 02:24:46;;;;;;;15.43;13.77;;;7.80;99.90;;;;;;5034202;28;20211;-55
2022/03/18 02:27:12;;;;;;;16.00;13.97;;;7.90;99.90;;;;;;5034063;28;20207;-55
2022/03/18 02:29:38;;;;;;;16.27;14.30;;;7.90;99.90;;;;;;5000099;28;20233;-51
2022/03/18 02:32:06;;;;;;;16.80;14.47;;;8.40;99.90;;;;;;5034058;28;20653;-53
2022/03/18 02:34:32;;;;;;;15.93;14.17;;;7.70;99.90;;;;;;5033744;28;20202;-53
2022/03/18 02:36:58;;;;;;;15.97;14.27;;;7.80;99.90;;;;;;5034130;28;20269;-52
2022/03/18 02:39:24;;;;;;;19.93;14.80;;;7.70;99.90;;;;;;5033948;28;20176;-51
2022/03/18 02:41:50;;;;;;;20.50;14.53;;;7.80;99.90;;;;;;5033783;28;20230;-55
2022/03/18 02:44:16;;;;;;;16.93;14.90;;;;;;;;;;5015674;28;20204;-52
2022/03/18 02:46:41;;;;;;;19.13;14.70;;;;;;;;;;5033952;28;20184;-52
2022/03/18 02:49:07;;;;;;;17.27;14.00;;;7.80;99.90;;;;;;4999814;28;20176;-52
2022/03/18 02:51:37;;;;;;;16.93;14.60;;;7.70;99.90;;;;;;5033815;28;20237;-51
2022/03/18 02:54:04;;;;;;;18.63;15.80;;;7.70;99.90;;;;;;5015995;28;20188;-50
2022/03/18 02:56:29;;;;;;;19.33;16.60;;;7.70;99.90;;;;;;5033414;28;20203;-54
2022/03/18 02:58:55;;;;;;;18.67;16.07;;;7.70;99.90;;;;;;5033478;28;20254;-50
2022/03/18 03:01:21;;;;;;;19.97;16.63;;;7.60;99.90;;;;;;5033642;28;20254;-50
2022/03/18 03:03:47;;;;;;;20.10;16.90;;;;;;;;;;5032909;28;20250;-54
2022/03/18 03:08:57;;;;;;;19.17;16.90;;;7.40;99.90;;;;;;5033327;28;20182;-51
2022/03/18 03:11:23;;;;;;;17.70;15.37;;;;;;;;;;5033429;28;20254;-55
2022/03/18 03:13:50;;;;;;;17.00;15.03;;;7.50;99.90;;;;;;5032887;28;20270;-51
2022/03/18 03:16:16;;;;;;;16.83;14.27;;;;;;;;;;5033182;28;20164;-51
2022/03/18 03:18:42;;;;;;;15.40;13.43;;;;;;;;;;5033285;28;20168;-54
2022/03/18 03:21:07;;;;;;;15.23;13.23;;;7.50;99.90;;;;;;5033171;28;20176;-49
2022/03/18 03:23:33;;;;;;;15.90;13.73;;;7.50;99.90;;;;;;5032724;28;20211;-52
2022/03/18 03:25:58;;;;;;;16.90;13.97;;;7.40;99.90;;;;;;5032794;28;20191;-57
2022/03/18 03:28:24;;;;;;;16.23;13.93;;;;;;;;;;5015298;28;20687;-51
2022/03/18 03:30:50;;;;;;;16.30;14.43;;;7.30;99.90;;;;;;5032947;28;20183;-55
2022/03/18 03:33:16;;;;;;;17.80;14.20;;;7.60;99.90;;;;;;5032623;28;20200;-52
2022/03/18 03:35:43;;;;;;;17.40;14.60;;;7.60;99.90;;;;;;5032867;28;20629;-49
2022/03/18 03:38:14;;;;;;;16.57;14.00;;;7.40;99.90;;;;;;5032749;28;20180;-52
2022/03/18 03:40:41;;;;;;;14.17;12.57;;;7.40;99.90;;;;;;5032806;28;20199;-55
2022/03/18 03:43:08;;;;;;;15.20;12.83;;;7.40;97.10;;;;;;5032523;28;20549;-53
2022/03/18 03:45:36;;;;;;;14.90;12.87;;;7.30;99.90;;;;;;5032705;28;20175;-55
2022/03/18 03:48:02;;;;;;;15.30;13.53;;;;;;;;;;5032589;28;20734;-55
2022/03/18 03:50:28;;;;;;;14.77;13.10;;;;;;;;;;5032583;28;20180;-53
2022/03/18 03:52:53;;;;;;;14.93;13.00;;;7.40;99.90;;;;;;5032171;28;20192;-55
2022/03/18 03:55:19;;;;;;;14.27;12.60;;;7.30;99.90;;;;;;5032435;28;20223;-53
2022/03/18 03:57:45;;;;;;;14.97;13.27;;;7.30;99.90;;;;;;5032465;28;20180;-52
2022/03/18 04:00:11;;;;;;;14.83;13.10;;;8.00;99.90;;;;;;5032125;28;20716;-53
2022/03/18 04:02:37;;;;;;;17.57;13.43;;;7.20;99.90;;;;;;5031928;28;20215;-51
2022/03/18 04:05:07;;;;;;;14.90;13.10;;;7.30;99.60;;;;;;5032335;28;20218;-51
2022/03/18 04:07:34;;;;;;;16.27;13.80;;;5.50;97.00;;;;;;5032216;28;20199;-52
2022/03/18 04:10:00;;;;;;;15.20;13.47;;;;;;;;;;5032352;28;20178;-54
2022/03/18 04:12:26;;;;;;;15.80;13.60;;;;;;;;;;5031730;28;20183;-52
2022/03/18 04:14:51;;;;;;;15.27;12.90;;;6.90;99.90;;;;;;5032221;28;20164;-55
2022/03/18 04:17:18;;;;;;;15.00;13.17;;;;;;;;;;5032156;28;20641;-53
2022/03/18 04:19:44;;;;;;;14.13;12.60;;;;;;;;;;5032118;28;20176;-52
2022/03/18 04:22:10;;;;;;;15.57;12.57;;;;;;;;;;5032066;28;20180;-56
2022/03/18 04:24:36;;;;;;;15.07;13.47;;;;;;;;;;5031768;28;20195;-55
2022/03/18 04:27:02;;;;;;;14.73;13.20;;;7.10;99.90;;;;;;5032043;28;20191;-54
2022/03/18 04:29:28;;;;;;;17.03;12.60;;;6.90;99.90;;;;;;5032045;28;20402;-56
2022/03/18 04:31:53;;;;;;;14.20;12.67;;;7.10;99.90;;;;;;5032069;28;20175;-57
2022/03/18 04:34:19;;;;;;;14.73;12.20;;;6.90;99.90;;;;;;5031496;28;20192;-52
2022/03/18 04:36:45;;;;;;;15.93;13.17;;;7.00;99.90;;;;;;5031988;28;20226;-55
2022/03/18 04:39:11;;;;;;;14.53;13.03;;;;;;;;;;5031771;28;20168;-54
2022/03/18 04:41:37;;;;;;;15.47;13.03;;;6.80;99.90;;;;;;5031839;28;20168;-52
2022/03/18 04:44:03;;;;;;;15.13;13.23;;;;;;;;;;5076576;22;20285;-53
2022/03/18 04:46:31;;;;;;;15.27;13.33;;;6.70;99.90;;;;;;5050559;28;20179;-55
2022/03/18 04:48:58;;;;;;;14.67;13.10;;;6.80;99.90;;;;;;5050684;28;20574;-54
2022/03/18 04:51:23;;;;;;;15.33;13.33;;;6.60;99.90;;;;;;5038461;28;20234;-54
2022/03/18 04:53:49;;;;;;;17.37;14.27;;;6.50;99.90;;;;;;5047282;28;20671;-53
2022/03/18 04:58:59;;;;;;;48.07;36.33;;;;;;;;;;5051341;28;20202;-53
2022/03/18 05:01:25;;;;;;;19.83;15.97;;;6.50;99.90;;;;;;5051062;28;20188;-54
2022/03/18 05:03:51;;;;;;;17.47;14.37;;;6.70;99.90;;;;;;5050732;28;20191;-51
2022/03/18 05:06:17;;;;;;;16.97;13.73;;;;;;;;;;5051288;28;20646;-56
2022/03/18 05:08:43;;;;;;;15.67;13.90;;;;;;;;;;5051352;28;20674;-55
2022/03/18 05:11:08;;;;;;;17.97;15.90;;;7.00;99.90;;;;;;5051086;28;20171;-55
2022/03/18 05:13:34;;;;;;;21.57;16.93;;;6.70;99.90;;;;;;5054835;28;20199;-54
2022/03/18 05:15:59;;;;;;;18.17;15.33;;;6.70;99.90;;;;;;5055046;28;20632;-56
2022/03/18 05:18:25;;;;;;;16.90;14.97;;;;;;;;;;5054985;28;20250;-56
2022/03/18 05:20:51;;;;;;;18.13;14.93;;;6.70;99.90;;;;;;5054826;28;20647;-56
2022/03/18 05:23:17;;;;;;;19.53;15.23;;;7.30;99.90;;;;;;5054710;28;20187;-53
2022/03/18 05:25:43;;;;;;;18.97;15.87;;;6.80;99.90;;;;;;5055087;28;20179;-55
2022/03/18 05:28:09;;;;;;;17.00;15.17;;;6.80;99.90;;;;;;5054958;28;20214;-52
2022/03/18 05:30:34;;;;;;;18.47;16.10;;;6.90;99.90;;;;;;5054960;28;20517;-52
2022/03/18 05:33:00;;;;;;;19.20;16.17;;;;;;;;;;5054693;28;20709;-52
2022/03/18 05:35:26;;;;;;;17.57;14.73;;;6.80;99.90;;;;;;5054819;28;20198;-52
2022/03/18 05:37:52;;;;;;;17.93;15.47;;;6.70;99.90;;;;;;5054904;28;20175;-53
2022/03/18 05:40:18;;;;;;;15.20;13.50;;;6.60;99.90;;;;;;5054466;28;20535;-51
2022/03/18 05:42:45;;;;;;;15.97;13.33;;;6.80;99.70;;;;;;5054148;28;20550;-54
2022/03/18 05:45:11;;;;;;;14.97;12.97;;;6.70;99.90;;;;;;5054604;28;20203;-52
2022/03/18 05:47:37;;;;;;;16.70;13.40;;;;;;;;;;5054351;28;20210;-52
2022/03/18 05:50:05;;;;;;;14.70;12.97;;;6.70;99.90;;;;;;5054641;28;20175;-53
2022/03/18 05:52:35;;;;;;;15.13;12.60;;;6.70;99.90;;;;;;5052806;28;20245;-51
2022/03/18 05:55:01;;;;;;;14.00;12.50;;;;;;;;;;5053699;28;20195;-53
2022/03/18 05:57:28;;;;;;;15.73;13.07;;;6.50;99.90;;;;;;5053273;28;20636;-56
2022/03/18 05:59:55;;;;;;;15.00;13.07;;;6.40;99.90;;;;;;5053510;28;20191;-55
2022/03/18 06:02:21;;;;;;;16.60;13.77;;;6.50;99.90;;;;;;5052990;28;20317;-56
2022/03/18 06:04:47;;;;;;;16.30;13.83;;;;;;;;;;5054165;28;20648;-54
2022/03/18 06:07:13;;;;;;;16.93;14.43;;;6.80;99.90;;;;;;5054103;28;20195;-53
2022/03/18 06:12:24;;;;;;;16.90;13.77;;;7.00;99.90;;;;;;5053443;28;20707;-56
2022/03/18 06:14:49;;;;;;;15.37;13.57;;;7.10;99.90;;;;;;5053698;28;20226;-56
2022/03/18 06:17:15;;;;;;;18.00;14.27;;;7.00;99.90;;;;;;5054096;28;20539;-57
2022/03/18 06:19:41;;;;;;;16.00;14.30;;;7.10;99.90;;;;;;5053679;28;20182;-52
2022/03/18 06:22:08;;;;;;;16.50;14.00;;;7.20;99.90;;;;;;5053467;28;20258;-51
2022/03/18 06:24:34;;;;;;;17.73;14.50;;;7.30;99.90;;;;;;5053088;28;20249;-54
2022/03/18 06:27:01;;;;;;;16.50;13.90;;;;;;;;;;5052207;28;20210;-55
2022/03/18 06:29:28;;;;;;;15.47;13.73;;;7.20;99.90;;;;;;5053636;28;20254;-52
2022/03/18 06:31:54;;;;;;;15.40;13.80;;;7.30;99.90;;;;;;5053433;28;20171;-55
2022/03/18 06:34:22;;;;;;;15.50;13.63;;;7.40;99.90;;;;;;5053326;28;20199;-56
2022/03/18 06:36:50;;;;;;;16.80;14.40;;;7.30;99.90;;;;;;5053808;28;20261;-59
2022/03/18 06:39:15;;;;;;;15.30;13.43;;;7.70;99.90;;;;;;5053688;28;20175;-52
2022/03/18 06:41:41;;;;;;;16.87;13.53;;;8.00;99.90;;;;;;5053464;28;20183;-52
2022/03/18 06:44:08;;;;;;;17.67;15.77;;;7.80;99.90;;;;;;5053265;28;20222;-55
2022/03/18 06:46:34;;;;;;;18.30;15.70;;;7.80;99.90;;;;;;5053295;28;20600;-54
2022/03/18 06:49:00;;;;;;;16.43;14.13;;;;;;;;;;5053586;28;20286;-57
2022/03/18 06:51:26;;;;;;;15.13;13.33;;;7.90;99.90;;;;;;5053492;28;20195;-53
2022/03/18 06:53:52;;;;;;;16.37;14.33;;;7.90;99.90;;;;;;5052889;28;20193;-57
2022/03/18 06:56:18;;;;;;;14.53;13.00;;;;;;;;;;5052374;28;20198;-57
2022/03/18 06:58:44;;;;;;;14.90;13.30;;;8.10;99.90;;;;;;5053297;28;20186;-56
2022/03/18 07:01:09;;;;;;;14.67;13.03;;;;;;;;;;5052560;28;20190;-55
2022/03/18 07:03:35;;;;;;;15.00;13.40;;;8.20;99.90;;;;;;5051474;28;20571;-56
2022/03/18 07:06:01;;;;;;;15.60;13.43;;;8.00;99.90;;;;;;5052582;28;20207;-57
2022/03/18 07:08:26;;;;;;;14.23;12.60;;;8.70;99.90;;;;;;5052567;28;20261;-54
2022/03/18 07:10:52;;;;;;;15.47;13.23;;;;;;;;;;5050760;28;20179;-54
2022/03/18 07:13:18;;;;;;;14.10;12.07;;;8.40;99.90;;;;;;5051087;28;20181;-55
2022/03/18 07:15:44;;;;;;;15.87;13.07;;;8.70;99.90;;;;;;5052772;28;20262;-57
2022/03/18 07:18:10;;;;;;;16.93;12.47;;;;;;;;;;5052647;28;20221;-53
2022/03/18 07:20:37;;;;;;;15.63;12.60;;;8.80;99.90;;;;;;5052821;28;20578;-55
2022/03/18 07:23:11;;;;;;;16.00;13.67;;;8.60;99.90;;;;;;5052302;28;20646;-50
2022/03/18 07:25:47;;;;;;;13.40;11.97;;;8.80;99.90;;;;;;5053048;28;20254;-53
2022/03/18 07:28:14;;;;;;;14.30;12.80;;;8.80;98.30;;;;;;5053054;28;20713;-52
2022/03/18 07:30:42;;;;;;;15.73;13.07;;;8.80;98.60;;;;;;5052773;28;20175;-53
2022/03/18 07:33:08;;;;;;;16.40;12.63;;;;;;;;;;5051955;28;20182;-52
2022/03/18 07:35:34;;;;;;;17.33;13.33;;;9.40;99.90;;;;;;5051809;28;20186;-52
2022/03/18 07:38:01;;;;;;;15.60;13.90;;;9.00;98.50;;;;;;5034756;28;20213;-54
2022/03/18 07:40:27;;;;;;;14.57;12.90;;;9.20;99.90;;;;;;5052704;28;20178;-53
2022/03/18 07:42:54;;;;;;;15.50;13.67;;;9.30;97.80;;;;;;5052447;28;20544;-55
2022/03/18 07:45:21;;;;;;;14.57;12.97;;;9.50;99.90;;;;;;5052390;28;20211;-52
2022/03/18 07:47:51;;;;;;;15.70;13.57;;;9.60;99.90;;;;;;5052507;28;20191;-56
2022/03/18 07:50:20;;;;;;;16.00;13.70;;;9.70;96.30;;;;;;5052279;28;20935;-52
2022/03/18 07:52:49;;;;;;;15.53;13.80;;;10.30;99.90;;;;;;5052032;28;20580;-53
2022/03/18 07:55:16;;;;;;;16.53;14.83;;;10.30;99.90;;;;;;5052407;28;20241;-52
2022/03/18 07:57:42;;;;;;;16.17;14.43;;;10.40;99.90;;;;;;5052324;28;20628;-53
2022/03/18 08:00:09;;;;;;;15.03;13.40;;;10.50;98.20;;;;;;5052365;28;20182;-57
2022/03/18 08:02:34;;;;;;;14.60;13.10;;;10.40;99.90;;;;;;5051865;28;20171;-53
2022/03/18 08:05:01;;;;;;;15.80;14.13;;;;;;;;;;5052159;28;20195;-56
2022/03/18 08:07:28;;;;;;;16.27;14.43;;;10.20;99.90;;;;;;5052047;28;20598;-54
2022/03/18 08:09:54;;;;;;;15.67;13.80;;;10.30;99.90;;;;;;5052185;28;20167;-51
2022/03/18 08:12:19;;;;;;;16.70;14.77;;;10.50;99.90;;;;;;5052219;28;20181;-52
2022/03/18 08:14:45;;;;;;;17.13;15.17;;;;;;;;;;5051952;28;20282;-53
2022/03/18 08:17:11;;;;;;;16.70;14.93;;;12.20;96.60;;;;;;5051841;28;20213;-55
2022/03/18 08:19:36;;;;;;;17.90;14.70;;;11.20;99.90;;;;;;5052079;28;20241;-53
2022/03/18 08:22:04;;;;;;;16.90;14.27;;;11.50;99.90;;;;;;5051875;28;20186;-53
2022/03/18 08:24:30;;;;;;;16.50;14.07;;;11.50;99.90;;;;;;5051603;28;20193;-52
2022/03/18 08:26:55;;;;;;;16.00;14.40;;;11.50;98.90;;;;;;5051288;28;20220;-54
2022/03/18 08:29:21;;;;;;;17.97;14.67;;;11.90;99.90;;;;;;5051723;28;20163;-52
2022/03/18 08:31:46;;;;;;;20.13;18.03;;;11.90;99.90;;;;;;5051797;28;20164;-55
2022/03/18 08:34:12;;;;;;;18.87;16.93;;;;;;;;;;5051232;28;20186;-54
2022/03/18 08:36:38;;;;;;;19.87;17.87;;;;;;;;;;5051535;28;20204;-55
2022/03/18 08:39:04;;;;;;;19.57;17.23;;;;;;;;;;5051771;28;20554;-55
2022/03/18 08:41:30;;;;;;;20.13;17.90;;;12.30;99.90;;;;;;5051861;28;20537;-52
2022/03/18 08:43:55;;;;;;;25.27;20.83;;;12.40;99.90;;;;;;5051102;28;20202;-55
2022/03/18 08:46:21;;;;;;;20.90;17.87;;;12.60;99.00;;;;;;5051639;28;20175;-57
2022/03/18 08:48:47;;;;;;;18.67;16.67;;;;;;;;;;5051703;28;20570;-57
2022/03/18 08:51:13;;;;;;;23.00;18.07;;;;;;;;;;5049160;28;20245;-37
2022/03/18 08:53:39;;;;;;;19.77;17.67;;;;;;;;;;5049282;28;20205;-33
2022/03/18 08:56:04;;;;;;;19.30;17.23;;;12.40;99.90;;;;;;5051277;28;20175;-36
2022/03/18 08:58:31;;;;;;;18.73;16.83;;;;;;;;;;5051293;28;20233;-34
2022/03/18 09:00:57;;;;;;;19.77;17.67;;;;;;;;;;5051465;28;20203;-33
2022/03/18 09:03:23;;;;;;;20.07;17.87;;;;;;;;;;5051033;28;20561;-28
2022/03/18 09:05:49;;;;;;;20.27;18.17;;;;;;;;;;5051172;28;20204;-35
2022/03/18 09:08:15;;;;;;;24.03;19.50;;;;;;;;;;5051350;28;20202;-31
2022/03/18 09:10:41;;;;;;;19.83;17.83;;;;;;;;;;5040616;28;20181;-33
2022/03/18 09:13:07;;;;;;;19.83;17.00;;;;;;;;;;5031138;28;20170;-33
2022/03/18 09:15:33;;;;;;;20.47;18.47;;;;;;;;;;5031420;28;20177;-35
2022/03/18 09:17:59;;;;;;;19.63;16.83;;;;;;;;;;5044126;28;20179;-35
2022/03/18 09:20:25;;;;;;;22.90;17.57;;;15.20;92.00;;;;;;5050461;28;20186;-55
2022/03/18 09:22:51;;;;;;;20.13;18.13;;;;;;;;;;5050922;28;20183;-56
2022/03/18 09:25:17;;;;;;;18.77;16.87;;;;;;;;;;5050833;28;20711;-57
2022/03/18 09:27:43;;;;;;;19.67;17.67;;;;;;;;;;5050987;28;20199;-54
2022/03/18 09:30:11;;;;;;;19.10;17.17;;;15.00;89.60;;;;;;5051080;28;20183;-52
2022/03/18 09:32:40;;;;;;;20.20;18.20;;;;;;;;;;5050422;28;20226;-52
2022/03/18 09:35:06;;;;;;;20.23;18.13;;;;;;;;;;5050980;28;20187;-54
2022/03/18 09:37:32;;;;;;;18.50;16.70;;;;;;;;;;5050250;28;20259;-55
2022/03/18 09:40:01;;;;;;;18.07;16.37;;;;;;;;;;5051005;28;20210;-55
2022/03/18 09:42:27;;;;;;;18.23;16.40;;;;;;;;;;5050771;28;20245;-55
2022/03/18 09:44:53;;;;;;;18.03;16.23;;;;;;;;;;5050705;28;20219;-54
2022/03/18 09:47:21;;;;;;;18.30;16.30;;;15.90;88.50;;;;;;5050784;28;20191;-55
2022/03/18 09:49:47;;;;;;;16.67;14.93;;;;;;;;;;5051141;28;20234;-56
2022/03/18 09:52:15;;;;;;;18.27;16.37;;;;;;;;;;5050083;28;20641;-49
2022/03/18 09:54:41;;;;;;;17.90;16.00;;;17.30;99.90;;;;;;5060188;28;20625;-52
2022/03/18 09:57:07;;;;;;;19.00;17.10;;;;;;;;;;5056779;28;20249;-51
2022/03/18 09:59:33;;;;;;;19.13;17.13;;;17.00;98.10;;;;;;5062996;28;20643;-54
2022/03/18 10:02:25;;;;;;;18.17;16.47;;;17.00;98.60;;;;;;5060411;28;20198;-51
2022/03/18 10:04:55;;;;;;;18.20;16.37;;;16.60;79.30;;;;;;5035302;28;20209;-53
2022/03/18 10:07:21;;;;;;;20.30;18.30;;;;;;;;;;5061693;28;20195;-52
2022/03/18 10:09:48;;;;;;;19.10;17.20;;;;;;;;;;5061585;28;20733;-52
2022/03/18 10:12:30;;;;;;;18.93;16.77;;;;;;;;;;5055582;28;20173;-54
2022/03/18 10:15:13;;;;;;;19.00;17.10;;;16.70;74.70;;;;;;5065631;28;20198;-56
2022/03/18 10:17:49;;;;;;;17.50;15.80;;;16.90;98.80;;;;;;5074156;28;20221;-55
2022/03/18 10:20:34;;;;;;;18.40;16.60;;;18.00;74.60;;;;;;5074408;28;20175;-53
2022/03/18 10:23:05;;;;;;;17.87;16.10;;;;;;;;;;5073242;28;20519;-49
2022/03/18 10:25:50;;;;;;;16.37;14.80;;;18.60;71.80;;;;;;5074357;28;20185;-52
2022/03/18 10:28:41;;;;;;;17.47;15.73;;;19.00;75.80;;;;;;5073952;28;20289;-49
2022/03/18 10:31:21;;;;;;;16.90;15.30;;;18.90;70.60;;;;;;5074237;28;20253;-51
2022/03/18 10:37:05;;;;;;;16.23;14.57;;;;;;;;;;5074361;28;20233;-55
2022/03/18 10:39:43;;;;;;;16.45;14.85;;;19.40;69.00;;;;;;5073952;28;20578;-53
2022/03/18 10:42:13;;;;;;;15.57;14.07;;;20.20;68.50;;;;;;5073773;28;20207;-56
2022/03/18 10:44:49;;;;;;;14.60;13.07;;;20.80;62.50;;;;;;5057918;22;20226;-50
2022/03/18 10:47:31;;;;;;;14.18;12.85;;;21.00;81.40;;;;;;5052640;28;20190;-48
2022/03/18 10:50:18;;;;;;;14.07;12.85;;;22.30;68.70;;;;;;5053080;28;20175;-49
2022/03/18 10:52:49;;;;;;;13.55;12.25;;;22.30;53.60;;;;;;5053239;28;20185;-50
2022/03/18 10:55:17;;;;;;;12.82;11.63;;;21.90;73.60;;;;;;5045082;28;20202;-53
2022/03/18 10:57:51;;;;;;;12.20;10.98;;;22.90;50.70;;;;;;5053465;28;20168;-49
2022/03/18 11:00:17;;;;;;;12.27;11.07;;;22.50;72.10;;;;;;5053580;28;20159;-51
2022/03/18 11:02:46;;;;;;;11.10;10.00;;;23.10;73.90;;;;;;5052862;28;20183;-48
2022/03/18 11:05:13;;;;;;;11.00;10.00;;;23.50;57.30;;;;;;5053171;28;20199;-51
2022/03/18 11:07:43;;;;;;;11.88;10.75;;;23.10;72.90;;;;;;5053303;28;20245;-52
2022/03/18 11:12:56;;;;;;;11.13;10.02;;;22.80;71.90;;;;;;5053390;28;20177;-51
2022/03/18 11:15:25;;;;;;;10.93;9.93;;;23.10;45.70;;;;;;5053070;28;20225;-53
2022/03/18 11:17:51;;;;;;;10.40;9.30;;;22.90;65.60;;;;;;5053146;28;20183;-53
2022/03/18 11:20:20;;;;;;;10.75;9.75;;;24.10;50.40;;;;;;5052791;28;20172;-46
2022/03/18 11:22:48;;;;;;;9.90;9.00;;;22.70;59.10;;;;;;5052885;28;20737;-50
2022/03/18 11:25:15;;;;;;;10.07;9.07;;;23.30;57.50;;;;;;5052830;28;20282;-52
2022/03/18 11:27:44;;;;;;;9.07;8.18;;;;;;;;;;5052902;28;20249;-52
2022/03/18 11:30:26;;;;;;;8.35;7.55;;;25.20;49.90;;;;;;5053009;28;20211;-54
2022/03/18 11:33:09;;;;;;;7.43;6.72;;;24.90;39.30;;;;;;5052532;28;20177;-55
2022/03/18 11:35:50;;;;;;;6.35;5.75;;;25.20;35.90;;;;;;5052601;28;20192;-50
2022/03/18 11:38:16;;;;;;;6.75;6.15;;;;;;;;;;5052914;28;20559;-55
2022/03/18 11:40:59;;;;;;;6.88;6.28;;;25.40;49.40;;;;;;5052673;28;20213;-53
2022/03/18 11:43:50;;;;;;;6.53;5.93;;;26.00;49.50;;;;;;5052259;28;20166;-52
2022/03/18 11:46:16;;;;;;;6.88;6.18;;;25.70;48.30;;;;;;5052579;28;20250;-50
2022/03/18 11:49:11;;;;;;;6.82;6.22;;;26.40;49.00;;;;;;5052465;28;20226;-54
2022/03/18 11:51:42;;;;;;;7.80;7.10;;;25.70;49.30;;;;;;5051971;28;20222;-49
2022/03/18 11:54:25;;;;;;;7.65;6.95;;;25.90;49.80;;;;;;5051572;28;20199;-53
2022/03/18 11:56:52;;;;;;;7.47;6.78;;;25.50;31.30;;;;;;5052360;28;20171;-51
2022/03/18 11:59:31;;;;;;;5.75;5.25;;;26.30;33.90;;;;;;5052283;28;20183;-50
2022/03/18 12:02:05;;;;;;;6.97;6.38;;;25.00;30.00;;;;;;5052178;28;20171;-51
2022/03/18 12:04:33;;;;;;;6.82;6.22;;;25.10;47.00;;;;;;5051705;28;20584;-51
2022/03/18 12:07:25;;;;;;;6.63;6.03;;;24.70;48.10;;;;;;5052167;28;20167;-47
2022/03/18 12:10:06;;;;;;;6.85;6.25;;;25.80;45.00;;;;;;5047139;28;20270;-51
2022/03/18 12:12:32;;;;;;;6.70;6.05;;;;;;;;;;5051283;28;20277;-50
2022/03/18 12:15:03;;;;;;;7.75;5.82;;;25.60;28.70;;;;;;5051346;28;20286;-52
2022/03/18 12:17:29;;;;;;;6.90;6.30;;;26.10;37.30;;;;;;5051713;28;20664;-53
2022/03/18 12:19:58;;;;;;;6.55;5.90;;;26.00;27.80;;;;;;5051564;28;20640;-48
2022/03/18 12:22:24;;;;;;;5.93;5.40;;;26.60;41.90;;;;;;5051424;28;20179;-47
2022/03/18 12:24:52;;;;;;;6.43;5.60;;;27.10;41.20;;;;;;5051838;28;20187;-52
2022/03/18 12:27:27;;;;;;;8.90;5.85;;;27.20;39.70;;;;;;5051496;28;20234;-49
2022/03/18 12:30:00;;;;;;;6.20;5.60;;;27.00;37.50;;;;;;5051858;28;20309;-50
2022/03/18 12:32:27;;;;;;;6.15;5.53;;;27.60;36.80;;;;;;5051494;28;20160;-50
2022/03/18 12:34:54;;;;;;;6.32;5.72;;;27.30;35.90;;;;;;5051707;28;20191;-50
2022/03/18 12:37:25;;;;;;;6.40;5.80;;;27.20;34.90;;;;;;5051819;28;20175;-50
2022/03/18 12:40:20;;;;;;;6.22;5.63;;;27.10;36.70;;;;;;5051732;28;20171;-50
2022/03/18 12:42:56;;;;;;;5.93;5.32;;;26.80;34.60;;;;;;5009408;28;20664;-52
2022/03/18 12:45:25;;;;;;;6.20;5.60;;;25.60;36.30;;;;;;5009378;28;20211;-53
2022/03/18 12:47:54;;;;;;;5.85;5.35;;;25.80;37.90;;;;;;5009521;28;20786;-54
2022/03/18 12:50:24;;;;;;;6.85;6.15;;;26.00;36.20;;;;;;5009837;28;20204;-55
2022/03/18 12:52:49;;;;;;;6.68;6.07;;;26.80;36.40;;;;;;5009439;28;20188;-48
2022/03/18 12:55:17;;;;;;;6.32;5.80;;;26.20;33.10;;;;;;5009589;28;20251;-47
2022/03/18 12:57:43;;;;;;;6.25;5.68;;;25.80;26.10;;;;;;5009899;28;20180;-52
2022/03/18 13:00:11;;;;;;;6.55;5.72;;;25.40;37.20;;;;;;5009583;28;20191;-50
2022/03/18 13:02:41;;;;;;;5.97;5.40;;;25.50;27.80;;;;;;5009421;28;20182;-53
2022/03/18 13:05:07;;;;;;;5.97;5.47;;;25.40;37.50;;;;;;5009408;28;20214;-52
2022/03/18 13:07:33;;;;;;;6.80;6.20;;;25.40;37.10;;;;;;5009588;28;20212;-54
2022/03/18 13:10:01;;;;;;;6.65;5.50;;;25.10;35.30;;;;;;5009608;28;20172;-51
2022/03/18 13:12:29;;;;;;;7.53;6.40;;;24.60;36.10;;;;;;5009248;28;20223;-51
2022/03/18 13:14:56;;;;;;;6.60;5.97;;;24.60;39.30;;;;;;5009509;28;20188;-54
2022/03/18 13:17:31;;;;;;;6.80;6.20;;;23.90;37.40;;;;;;5008744;28;20216;-50
2022/03/18 13:19:57;;;;;;;6.50;5.90;;;23.00;37.90;;;;;;5044419;28;20190;-52
2022/03/18 13:22:25;;;;;;;7.63;6.55;;;23.40;31.40;;;;;;5051083;28;20183;-50